sensor_id;sensor_type;location;lat;lon;timestamp;temperature;humidity
64062;DHT22;50308;47.438;-1.528;2023-03-01T00:00:11;6.50;71.60
64062;DHT22;50308;47.438;-1.528;2023-03-01T00:02:37;6.50;71.50
64062;DHT22;50308;47.438;-1.528;2023-03-01T00:05:02;6.50;71.30
64062;DHT22;50308;47.438;-1.528;2023-03-01T00:07:28;6.50;71.30
64062;DHT22;50308;47.438;-1.528;2023-03-01T00:09:55;6.50;71.10
64062;DHT22;50308;47.438;-1.528;2023-03-01T00:12:20;6.50;71.10
64062;DHT22;50308;47.438;-1.528;2023-03-01T00:14:46;6.40;70.80
64062;DHT22;50308;47.438;-1.528;2023-03-01T00:17:11;6.40;71.10
64062;DHT22;50308;47.438;-1.528;2023-03-01T00:19:37;6.40;71.10
64062;DHT22;50308;47.438;-1.528;2023-03-01T00:22:03;6.40;71.10
64062;DHT22;50308;47.438;-1.528;2023-03-01T00:24:28;6.30;71.00
64062;DHT22;50308;47.438;-1.528;2023-03-01T00:26:54;6.30;70.90
64062;DHT22;50308;47.438;-1.528;2023-03-01T00:29:21;6.30;71.10
64062;DHT22;50308;47.438;-1.528;2023-03-01T00:31:47;6.30;70.90
64062;DHT22;50308;47.438;-1.528;2023-03-01T00:34:12;6.30;70.90
64062;DHT22;50308;47.438;-1.528;2023-03-01T00:36:38;6.30;70.90
64062;DHT22;50308;47.438;-1.528;2023-03-01T00:39:05;6.20;70.90
64062;DHT22;50308;47.438;-1.528;2023-03-01T00:41:31;6.20;70.90
64062;DHT22;50308;47.438;-1.528;2023-03-01T00:43:56;6.20;70.90
64062;DHT22;50308;47.438;-1.528;2023-03-01T00:46:24;6.10;70.80
64062;DHT22;50308;47.438;-1.528;2023-03-01T00:48:50;6.10;70.80
64062;DHT22;50308;47.438;-1.528;2023-03-01T00:51:19;6.10;70.80
64062;DHT22;50308;47.438;-1.528;2023-03-01T00:53:46;6.20;70.70
64062;DHT22;50308;47.438;-1.528;2023-03-01T00:56:12;6.10;70.50
64062;DHT22;50308;47.438;-1.528;2023-03-01T00:58:38;6.10;70.70
64062;DHT22;50308;47.438;-1.528;2023-03-01T01:01:11;6.10;70.70
64062;DHT22;50308;47.438;-1.528;2023-03-01T01:03:43;6.10;70.50
64062;DHT22;50308;47.438;-1.528;2023-03-01T01:06:13;6.10;70.10
64062;DHT22;50308;47.438;-1.528;2023-03-01T01:08:38;6.10;70.40
64062;DHT22;50308;47.438;-1.528;2023-03-01T01:11:04;6.10;70.40
64062;DHT22;50308;47.438;-1.528;2023-03-01T01:13:29;6.00;70.20
64062;DHT22;50308;47.438;-1.528;2023-03-01T01:15:59;6.10;70.10
64062;DHT22;50308;47.438;-1.528;2023-03-01T01:18:25;6.10;69.70
64062;DHT22;50308;47.438;-1.528;2023-03-01T01:20:50;6.00;70.00
64062;DHT22;50308;47.438;-1.528;2023-03-01T01:23:16;6.00;69.90
64062;DHT22;50308;47.438;-1.528;2023-03-01T01:25:41;6.00;70.00
64062;DHT22;50308;47.438;-1.528;2023-03-01T01:28:07;6.00;69.90
64062;DHT22;50308;47.438;-1.528;2023-03-01T01:30:32;5.90;69.70
64062;DHT22;50308;47.438;-1.528;2023-03-01T01:32:58;5.90;69.80
64062;DHT22;50308;47.438;-1.528;2023-03-01T01:35:24;6.00;69.40
64062;DHT22;50308;47.438;-1.528;2023-03-01T01:37:49;5.90;69.60
64062;DHT22;50308;47.438;-1.528;2023-03-01T01:40:15;5.90;69.40
64062;DHT22;50308;47.438;-1.528;2023-03-01T01:42:40;5.90;69.50
64062;DHT22;50308;47.438;-1.528;2023-03-01T01:47:50;5.90;69.40
64062;DHT22;50308;47.438;-1.528;2023-03-01T01:50:16;5.90;69.60
64062;DHT22;50308;47.438;-1.528;2023-03-01T01:52:42;5.90;69.30
64062;DHT22;50308;47.438;-1.528;2023-03-01T01:55:09;5.90;69.30
64062;DHT22;50308;47.438;-1.528;2023-03-01T01:57:37;5.90;69.30
64062;DHT22;50308;47.438;-1.528;2023-03-01T02:00:07;6.00;69.30
64062;DHT22;50308;47.438;-1.528;2023-03-01T02:02:34;6.00;69.30
64062;DHT22;50308;47.438;-1.528;2023-03-01T02:05:05;6.00;69.10
64062;DHT22;50308;47.438;-1.528;2023-03-01T02:07:35;6.00;68.80
64062;DHT22;50308;47.438;-1.528;2023-03-01T02:10:02;6.00;68.70
64062;DHT22;50308;47.438;-1.528;2023-03-01T02:12:28;6.00;68.80
64062;DHT22;50308;47.438;-1.528;2023-03-01T02:14:54;6.00;68.80
64062;DHT22;50308;47.438;-1.528;2023-03-01T02:17:19;6.00;68.60
64062;DHT22;50308;47.438;-1.528;2023-03-01T02:22:24;6.10;68.50
64062;DHT22;50308;47.438;-1.528;2023-03-01T02:24:54;6.00;68.70
64062;DHT22;50308;47.438;-1.528;2023-03-01T02:27:22;6.10;68.60
64062;DHT22;50308;47.438;-1.528;2023-03-01T02:29:51;6.10;68.30
64062;DHT22;50308;47.438;-1.528;2023-03-01T02:32:17;6.10;68.30
64062;DHT22;50308;47.438;-1.528;2023-03-01T02:34:53;6.10;68.30
64062;DHT22;50308;47.438;-1.528;2023-03-01T02:37:19;6.10;67.90
64062;DHT22;50308;47.438;-1.528;2023-03-01T02:39:57;6.10;68.10
64062;DHT22;50308;47.438;-1.528;2023-03-01T02:42:26;6.00;68.00
64062;DHT22;50308;47.438;-1.528;2023-03-01T02:44:52;6.10;68.20
64062;DHT22;50308;47.438;-1.528;2023-03-01T02:47:19;6.10;67.80
64062;DHT22;50308;47.438;-1.528;2023-03-01T02:49:44;6.10;68.00
64062;DHT22;50308;47.438;-1.528;2023-03-01T02:57:20;6.10;67.60
64062;DHT22;50308;47.438;-1.528;2023-03-01T02:59:47;6.10;68.00
64062;DHT22;50308;47.438;-1.528;2023-03-01T03:02:20;6.10;67.90
64062;DHT22;50308;47.438;-1.528;2023-03-01T03:07:32;6.00;67.80
64062;DHT22;50308;47.438;-1.528;2023-03-01T03:09:58;6.10;67.60
64062;DHT22;50308;47.438;-1.528;2023-03-01T03:12:23;6.10;67.80
64062;DHT22;50308;47.438;-1.528;2023-03-01T03:14:49;6.10;67.70
64062;DHT22;50308;47.438;-1.528;2023-03-01T03:17:14;6.10;67.60
64062;DHT22;50308;47.438;-1.528;2023-03-01T03:19:40;6.10;67.40
64062;DHT22;50308;47.438;-1.528;2023-03-01T03:22:06;6.00;67.70
64062;DHT22;50308;47.438;-1.528;2023-03-01T03:24:34;6.00;67.90
64062;DHT22;50308;47.438;-1.528;2023-03-01T03:27:03;6.10;67.60
64062;DHT22;50308;47.438;-1.528;2023-03-01T03:29:29;6.00;67.50
64062;DHT22;50308;47.438;-1.528;2023-03-01T03:31:54;6.10;67.40
64062;DHT22;50308;47.438;-1.528;2023-03-01T03:34:20;6.10;67.40
64062;DHT22;50308;47.438;-1.528;2023-03-01T03:36:45;6.00;67.40
64062;DHT22;50308;47.438;-1.528;2023-03-01T03:39:11;6.00;67.70
64062;DHT22;50308;47.438;-1.528;2023-03-01T03:41:37;6.00;67.40
64062;DHT22;50308;47.438;-1.528;2023-03-01T03:44:02;6.00;67.20
64062;DHT22;50308;47.438;-1.528;2023-03-01T03:46:28;6.00;67.40
64062;DHT22;50308;47.438;-1.528;2023-03-01T03:48:53;6.00;67.40
64062;DHT22;50308;47.438;-1.528;2023-03-01T03:51:19;6.00;67.00
64062;DHT22;50308;47.438;-1.528;2023-03-01T03:53:44;6.00;67.30
64062;DHT22;50308;47.438;-1.528;2023-03-01T03:56:11;6.00;67.40
64062;DHT22;50308;47.438;-1.528;2023-03-01T03:58:37;6.10;67.20
64062;DHT22;50308;47.438;-1.528;2023-03-01T04:01:03;6.00;67.40
64062;DHT22;50308;47.438;-1.528;2023-03-01T04:03:29;6.00;67.20
64062;DHT22;50308;47.438;-1.528;2023-03-01T04:05:56;6.00;67.30
64062;DHT22;50308;47.438;-1.528;2023-03-01T04:08:22;6.00;67.50
64062;DHT22;50308;47.438;-1.528;2023-03-01T04:10:52;6.00;67.20
64062;DHT22;50308;47.438;-1.528;2023-03-01T04:13:21;6.00;67.20
64062;DHT22;50308;47.438;-1.528;2023-03-01T04:15:51;5.90;67.30
64062;DHT22;50308;47.438;-1.528;2023-03-01T04:18:17;6.00;67.40
64062;DHT22;50308;47.438;-1.528;2023-03-01T04:20:43;6.00;67.40
64062;DHT22;50308;47.438;-1.528;2023-03-01T04:23:17;6.00;67.10
64062;DHT22;50308;47.438;-1.528;2023-03-01T04:28:26;6.00;67.00
64062;DHT22;50308;47.438;-1.528;2023-03-01T04:30:53;6.00;67.20
64062;DHT22;50308;47.438;-1.528;2023-03-01T04:33:19;6.00;66.90
64062;DHT22;50308;47.438;-1.528;2023-03-01T04:35:44;6.10;66.80
64062;DHT22;50308;47.438;-1.528;2023-03-01T04:38:10;6.00;66.70
64062;DHT22;50308;47.438;-1.528;2023-03-01T04:40:36;6.10;67.10
64062;DHT22;50308;47.438;-1.528;2023-03-01T04:43:01;6.10;66.40
64062;DHT22;50308;47.438;-1.528;2023-03-01T04:45:27;6.10;66.30
64062;DHT22;50308;47.438;-1.528;2023-03-01T04:47:53;6.10;66.60
64062;DHT22;50308;47.438;-1.528;2023-03-01T04:50:18;6.00;66.60
64062;DHT22;50308;47.438;-1.528;2023-03-01T04:52:48;6.10;66.60
64062;DHT22;50308;47.438;-1.528;2023-03-01T04:55:14;6.10;66.30
64062;DHT22;50308;47.438;-1.528;2023-03-01T04:57:40;6.10;66.20
64062;DHT22;50308;47.438;-1.528;2023-03-01T05:00:06;6.10;66.40
64062;DHT22;50308;47.438;-1.528;2023-03-01T05:02:52;6.10;66.30
64062;DHT22;50308;47.438;-1.528;2023-03-01T05:05:25;6.00;66.60
64062;DHT22;50308;47.438;-1.528;2023-03-01T05:07:55;6.00;66.20
64062;DHT22;50308;47.438;-1.528;2023-03-01T05:10:21;6.00;67.30
64062;DHT22;50308;47.438;-1.528;2023-03-01T05:12:47;6.00;66.20
64062;DHT22;50308;47.438;-1.528;2023-03-01T05:15:13;6.00;66.00
64062;DHT22;50308;47.438;-1.528;2023-03-01T05:17:39;5.90;66.30
64062;DHT22;50308;47.438;-1.528;2023-03-01T05:20:05;5.90;66.20
64062;DHT22;50308;47.438;-1.528;2023-03-01T05:22:34;6.00;66.30
64062;DHT22;50308;47.438;-1.528;2023-03-01T05:25:00;5.90;66.00
64062;DHT22;50308;47.438;-1.528;2023-03-01T05:27:26;5.90;66.00
64062;DHT22;50308;47.438;-1.528;2023-03-01T05:29:52;5.90;66.20
64062;DHT22;50308;47.438;-1.528;2023-03-01T05:32:17;5.90;66.30
64062;DHT22;50308;47.438;-1.528;2023-03-01T05:34:43;5.90;66.10
64062;DHT22;50308;47.438;-1.528;2023-03-01T05:37:11;5.90;66.60
64062;DHT22;50308;47.438;-1.528;2023-03-01T05:39:37;5.80;66.40
64062;DHT22;50308;47.438;-1.528;2023-03-01T05:42:03;5.90;66.60
64062;DHT22;50308;47.438;-1.528;2023-03-01T05:44:28;5.90;66.50
64062;DHT22;50308;47.438;-1.528;2023-03-01T05:46:54;5.90;66.10
64062;DHT22;50308;47.438;-1.528;2023-03-01T05:49:20;5.90;66.30
64062;DHT22;50308;47.438;-1.528;2023-03-01T05:51:49;5.90;66.30
64062;DHT22;50308;47.438;-1.528;2023-03-01T05:54:16;5.90;66.40
64062;DHT22;50308;47.438;-1.528;2023-03-01T05:56:42;5.80;66.00
64062;DHT22;50308;47.438;-1.528;2023-03-01T05:59:07;5.80;66.20
64062;DHT22;50308;47.438;-1.528;2023-03-01T06:01:33;5.80;66.00
64062;DHT22;50308;47.438;-1.528;2023-03-01T06:03:59;5.90;66.00
64062;DHT22;50308;47.438;-1.528;2023-03-01T06:06:25;5.80;65.90
64062;DHT22;50308;47.438;-1.528;2023-03-01T06:08:51;5.80;65.80
64062;DHT22;50308;47.438;-1.528;2023-03-01T06:11:16;5.90;65.80
64062;DHT22;50308;47.438;-1.528;2023-03-01T06:13:42;5.80;65.60
64062;DHT22;50308;47.438;-1.528;2023-03-01T06:16:08;5.90;66.30
64062;DHT22;50308;47.438;-1.528;2023-03-01T06:18:34;5.90;65.50
64062;DHT22;50308;47.438;-1.528;2023-03-01T06:20:59;5.80;65.80
64062;DHT22;50308;47.438;-1.528;2023-03-01T06:23:25;5.90;65.90
64062;DHT22;50308;47.438;-1.528;2023-03-01T06:25:51;5.80;65.70
64062;DHT22;50308;47.438;-1.528;2023-03-01T06:28:17;5.80;65.40
64062;DHT22;50308;47.438;-1.528;2023-03-01T06:30:42;5.80;65.50
64062;DHT22;50308;47.438;-1.528;2023-03-01T06:33:08;5.90;65.70
64062;DHT22;50308;47.438;-1.528;2023-03-01T06:35:33;5.90;65.20
64062;DHT22;50308;47.438;-1.528;2023-03-01T06:38:00;5.90;65.30
64062;DHT22;50308;47.438;-1.528;2023-03-01T06:40:26;5.90;65.10
64062;DHT22;50308;47.438;-1.528;2023-03-01T06:42:51;5.90;65.30
64062;DHT22;50308;47.438;-1.528;2023-03-01T06:45:18;6.00;65.10
64062;DHT22;50308;47.438;-1.528;2023-03-01T06:47:43;5.90;64.80
64062;DHT22;50308;47.438;-1.528;2023-03-01T06:50:09;5.90;65.30
64062;DHT22;50308;47.438;-1.528;2023-03-01T06:52:35;5.90;64.80
64062;DHT22;50308;47.438;-1.528;2023-03-01T06:55:00;5.90;65.30
64062;DHT22;50308;47.438;-1.528;2023-03-01T06:57:26;5.90;65.00
64062;DHT22;50308;47.438;-1.528;2023-03-01T06:59:52;5.90;65.30
64062;DHT22;50308;47.438;-1.528;2023-03-01T07:02:18;5.90;65.10
64062;DHT22;50308;47.438;-1.528;2023-03-01T07:04:43;5.90;65.30
64062;DHT22;50308;47.438;-1.528;2023-03-01T07:07:09;5.80;64.80
64062;DHT22;50308;47.438;-1.528;2023-03-01T07:09:35;5.90;65.20
64062;DHT22;50308;47.438;-1.528;2023-03-01T07:12:01;5.80;65.00
64062;DHT22;50308;47.438;-1.528;2023-03-01T07:14:26;5.90;65.00
64062;DHT22;50308;47.438;-1.528;2023-03-01T07:16:52;5.90;64.70
64062;DHT22;50308;47.438;-1.528;2023-03-01T07:19:18;5.90;64.90
64062;DHT22;50308;47.438;-1.528;2023-03-01T07:21:44;5.90;65.00
64062;DHT22;50308;47.438;-1.528;2023-03-01T07:24:10;5.90;65.00
64062;DHT22;50308;47.438;-1.528;2023-03-01T07:26:35;5.90;64.80
64062;DHT22;50308;47.438;-1.528;2023-03-01T07:29:02;5.90;64.60
64062;DHT22;50308;47.438;-1.528;2023-03-01T07:31:28;5.90;64.70
64062;DHT22;50308;47.438;-1.528;2023-03-01T07:33:54;5.90;64.70
64062;DHT22;50308;47.438;-1.528;2023-03-01T07:36:20;5.80;64.40
64062;DHT22;50308;47.438;-1.528;2023-03-01T07:38:45;5.90;65.90
64062;DHT22;50308;47.438;-1.528;2023-03-01T07:41:11;5.90;64.80
64062;DHT22;50308;47.438;-1.528;2023-03-01T07:43:36;5.90;64.60
64062;DHT22;50308;47.438;-1.528;2023-03-01T07:46:02;5.90;65.10
64062;DHT22;50308;47.438;-1.528;2023-03-01T07:48:28;5.90;65.00
64062;DHT22;50308;47.438;-1.528;2023-03-01T07:50:54;5.80;65.00
64062;DHT22;50308;47.438;-1.528;2023-03-01T07:53:20;5.90;64.20
64062;DHT22;50308;47.438;-1.528;2023-03-01T07:55:45;5.90;64.90
64062;DHT22;50308;47.438;-1.528;2023-03-01T07:58:11;5.90;64.60
64062;DHT22;50308;47.438;-1.528;2023-03-01T08:00:36;5.90;65.00
64062;DHT22;50308;47.438;-1.528;2023-03-01T08:03:02;5.90;64.80
64062;DHT22;50308;47.438;-1.528;2023-03-01T08:05:28;5.90;65.10
64062;DHT22;50308;47.438;-1.528;2023-03-01T08:07:54;5.90;65.00
64062;DHT22;50308;47.438;-1.528;2023-03-01T08:10:19;5.90;65.00
64062;DHT22;50308;47.438;-1.528;2023-03-01T08:12:45;6.00;64.90
64062;DHT22;50308;47.438;-1.528;2023-03-01T08:15:10;6.00;64.70
64062;DHT22;50308;47.438;-1.528;2023-03-01T08:17:36;6.00;64.90
64062;DHT22;50308;47.438;-1.528;2023-03-01T08:20:02;6.00;64.60
64062;DHT22;50308;47.438;-1.528;2023-03-01T08:22:29;6.00;64.50
64062;DHT22;50308;47.438;-1.528;2023-03-01T08:24:55;6.00;64.30
64062;DHT22;50308;47.438;-1.528;2023-03-01T08:27:21;6.00;64.70
64062;DHT22;50308;47.438;-1.528;2023-03-01T08:29:46;6.00;64.50
64062;DHT22;50308;47.438;-1.528;2023-03-01T08:32:12;6.00;64.30
64062;DHT22;50308;47.438;-1.528;2023-03-01T08:34:37;5.90;64.30
64062;DHT22;50308;47.438;-1.528;2023-03-01T08:37:03;6.00;64.50
64062;DHT22;50308;47.438;-1.528;2023-03-01T08:39:28;6.00;64.40
64062;DHT22;50308;47.438;-1.528;2023-03-01T08:41:54;6.10;64.40
64062;DHT22;50308;47.438;-1.528;2023-03-01T08:44:20;6.10;64.20
64062;DHT22;50308;47.438;-1.528;2023-03-01T08:46:46;6.10;63.90
64062;DHT22;50308;47.438;-1.528;2023-03-01T08:49:13;6.20;64.10
64062;DHT22;50308;47.438;-1.528;2023-03-01T08:51:39;6.20;64.20
64062;DHT22;50308;47.438;-1.528;2023-03-01T08:54:05;6.30;64.10
64062;DHT22;50308;47.438;-1.528;2023-03-01T08:56:30;6.30;63.90
64062;DHT22;50308;47.438;-1.528;2023-03-01T08:58:56;6.30;64.00
64062;DHT22;50308;47.438;-1.528;2023-03-01T09:01:22;6.30;64.20
64062;DHT22;50308;47.438;-1.528;2023-03-01T09:03:47;6.20;64.00
64062;DHT22;50308;47.438;-1.528;2023-03-01T09:06:13;6.30;63.90
64062;DHT22;50308;47.438;-1.528;2023-03-01T09:08:43;6.30;63.60
64062;DHT22;50308;47.438;-1.528;2023-03-01T09:11:10;6.40;64.00
64062;DHT22;50308;47.438;-1.528;2023-03-01T09:13:35;6.30;63.70
64062;DHT22;50308;47.438;-1.528;2023-03-01T09:16:02;6.30;63.80
64062;DHT22;50308;47.438;-1.528;2023-03-01T09:18:28;6.40;63.70
64062;DHT22;50308;47.438;-1.528;2023-03-01T09:21:00;6.50;63.60
64062;DHT22;50308;47.438;-1.528;2023-03-01T09:23:26;6.60;63.70
64062;DHT22;50308;47.438;-1.528;2023-03-01T09:25:52;6.40;63.50
64062;DHT22;50308;47.438;-1.528;2023-03-01T09:28:17;6.40;63.40
64062;DHT22;50308;47.438;-1.528;2023-03-01T09:30:43;6.50;63.40
64062;DHT22;50308;47.438;-1.528;2023-03-01T09:33:08;6.60;63.80
64062;DHT22;50308;47.438;-1.528;2023-03-01T09:35:40;6.70;62.70
64062;DHT22;50308;47.438;-1.528;2023-03-01T09:38:11;6.70;63.00
64062;DHT22;50308;47.438;-1.528;2023-03-01T09:40:37;6.70;63.00
64062;DHT22;50308;47.438;-1.528;2023-03-01T09:45:40;6.70;62.90
64062;DHT22;50308;47.438;-1.528;2023-03-01T09:48:08;6.70;62.90
64062;DHT22;50308;47.438;-1.528;2023-03-01T09:50:36;6.70;63.20
64062;DHT22;50308;47.438;-1.528;2023-03-01T09:53:31;6.70;62.90
64062;DHT22;50308;47.438;-1.528;2023-03-01T09:55:54;6.80;62.60
64062;DHT22;50308;47.438;-1.528;2023-03-01T10:01:05;6.70;62.80
64062;DHT22;50308;47.438;-1.528;2023-03-01T10:03:37;6.80;62.50
64062;DHT22;50308;47.438;-1.528;2023-03-01T10:10:56;6.90;62.30
64062;DHT22;50308;47.438;-1.528;2023-03-01T10:13:24;7.00;62.50
64062;DHT22;50308;47.438;-1.528;2023-03-01T10:15:53;7.10;62.10
64062;DHT22;50308;47.438;-1.528;2023-03-01T10:18:22;7.00;61.60
64062;DHT22;50308;47.438;-1.528;2023-03-01T10:20:52;7.00;61.70
64062;DHT22;50308;47.438;-1.528;2023-03-01T10:23:18;7.00;61.30
64062;DHT22;50308;47.438;-1.528;2023-03-01T10:25:53;7.20;62.40
64062;DHT22;50308;47.438;-1.528;2023-03-01T10:29:04;7.20;61.10
64062;DHT22;50308;47.438;-1.528;2023-03-01T10:31:15;7.20;61.50
64062;DHT22;50308;47.438;-1.528;2023-03-01T10:33:41;7.30;60.40
64062;DHT22;50308;47.438;-1.528;2023-03-01T10:36:08;7.30;61.00
64062;DHT22;50308;47.438;-1.528;2023-03-01T10:41:14;7.50;61.30
64062;DHT22;50308;47.438;-1.528;2023-03-01T10:43:47;7.50;61.50
64062;DHT22;50308;47.438;-1.528;2023-03-01T10:46:23;7.60;61.60
64062;DHT22;50308;47.438;-1.528;2023-03-01T10:49:05;7.60;60.90
64062;DHT22;50308;47.438;-1.528;2023-03-01T10:51:31;7.60;63.20
64062;DHT22;50308;47.438;-1.528;2023-03-01T10:53:57;7.60;60.30
64062;DHT22;50308;47.438;-1.528;2023-03-01T10:56:22;7.70;61.60
64062;DHT22;50308;47.438;-1.528;2023-03-01T10:59:02;7.70;61.80
64062;DHT22;50308;47.438;-1.528;2023-03-01T11:01:34;7.80;60.70
64062;DHT22;50308;47.438;-1.528;2023-03-01T11:06:28;7.80;60.70
64062;DHT22;50308;47.438;-1.528;2023-03-01T11:08:54;7.80;61.10
64062;DHT22;50308;47.438;-1.528;2023-03-01T11:16:13;7.80;60.20
64062;DHT22;50308;47.438;-1.528;2023-03-01T11:18:39;7.80;60.00
64062;DHT22;50308;47.438;-1.528;2023-03-01T11:21:04;7.80;60.10
64062;DHT22;50308;47.438;-1.528;2023-03-01T11:23:31;7.90;61.80
64062;DHT22;50308;47.438;-1.528;2023-03-01T11:26:05;7.90;60.40
64062;DHT22;50308;47.438;-1.528;2023-03-01T11:28:32;7.90;62.20
64062;DHT22;50308;47.438;-1.528;2023-03-01T11:36:20;8.00;61.40
64062;DHT22;50308;47.438;-1.528;2023-03-01T11:38:49;8.10;61.50
64062;DHT22;50308;47.438;-1.528;2023-03-01T11:41:16;8.10;60.90
64062;DHT22;50308;47.438;-1.528;2023-03-01T11:43:50;8.00;59.70
64062;DHT22;50308;47.438;-1.528;2023-03-01T11:54:18;8.10;60.90
64062;DHT22;50308;47.438;-1.528;2023-03-01T11:56:51;8.20;63.60
64062;DHT22;50308;47.438;-1.528;2023-03-01T11:59:29;8.10;62.20
64062;DHT22;50308;47.438;-1.528;2023-03-01T12:25:18;8.30;63.40
64062;DHT22;50308;47.438;-1.528;2023-03-01T12:33:05;8.30;61.70
64062;DHT22;50308;47.438;-1.528;2023-03-01T12:35:48;8.30;63.00
64062;DHT22;50308;47.438;-1.528;2023-03-01T12:46:28;8.40;62.80
64062;DHT22;50308;47.438;-1.528;2023-03-01T12:51:29;8.40;63.30
64062;DHT22;50308;47.438;-1.528;2023-03-01T12:53:55;8.40;63.70
64062;DHT22;50308;47.438;-1.528;2023-03-01T12:56:23;8.40;63.70
64062;DHT22;50308;47.438;-1.528;2023-03-01T13:07:16;8.50;64.00
64062;DHT22;50308;47.438;-1.528;2023-03-01T13:15:34;8.50;62.30
64062;DHT22;50308;47.438;-1.528;2023-03-01T13:20:29;8.50;63.50
64062;DHT22;50308;47.438;-1.528;2023-03-01T13:23:24;8.50;63.50
64062;DHT22;50308;47.438;-1.528;2023-03-01T13:30:56;8.60;64.40
64062;DHT22;50308;47.438;-1.528;2023-03-01T13:35:54;8.60;63.90
64062;DHT22;50308;47.438;-1.528;2023-03-01T13:38:37;8.60;64.50
64062;DHT22;50308;47.438;-1.528;2023-03-01T13:41:03;8.60;63.90
64062;DHT22;50308;47.438;-1.528;2023-03-01T13:43:31;8.60;64.20
64062;DHT22;50308;47.438;-1.528;2023-03-01T13:45:57;8.70;60.90
64062;DHT22;50308;47.438;-1.528;2023-03-01T13:48:30;8.70;58.80
64062;DHT22;50308;47.438;-1.528;2023-03-01T13:50:57;8.80;59.20
64062;DHT22;50308;47.438;-1.528;2023-03-01T13:53:25;8.90;60.00
64062;DHT22;50308;47.438;-1.528;2023-03-01T13:55:52;9.00;59.50
64062;DHT22;50308;47.438;-1.528;2023-03-01T13:58:27;9.20;60.00
64062;DHT22;50308;47.438;-1.528;2023-03-01T14:03:22;9.30;56.90
64062;DHT22;50308;47.438;-1.528;2023-03-01T14:05:58;9.20;57.50
64062;DHT22;50308;47.438;-1.528;2023-03-01T14:08:25;9.30;58.90
64062;DHT22;50308;47.438;-1.528;2023-03-01T14:18:47;9.60;59.40
64062;DHT22;50308;47.438;-1.528;2023-03-01T14:21:17;9.60;59.40
64062;DHT22;50308;47.438;-1.528;2023-03-01T14:23:43;9.60;59.40
64062;DHT22;50308;47.438;-1.528;2023-03-01T14:26:08;9.70;58.00
64062;DHT22;50308;47.438;-1.528;2023-03-01T14:28:36;9.70;57.00
64062;DHT22;50308;47.438;-1.528;2023-03-01T14:33:56;9.80;56.30
64062;DHT22;50308;47.438;-1.528;2023-03-01T14:36:26;9.80;56.90
64062;DHT22;50308;47.438;-1.528;2023-03-01T14:38:52;9.70;60.00
64062;DHT22;50308;47.438;-1.528;2023-03-01T14:41:23;9.80;59.20
64062;DHT22;50308;47.438;-1.528;2023-03-01T14:43:55;9.80;59.00
64062;DHT22;50308;47.438;-1.528;2023-03-01T14:46:24;10.00;57.90
64062;DHT22;50308;47.438;-1.528;2023-03-01T14:48:51;10.00;56.40
64062;DHT22;50308;47.438;-1.528;2023-03-01T14:51:18;10.00;58.00
64062;DHT22;50308;47.438;-1.528;2023-03-01T14:53:44;9.90;56.50
64062;DHT22;50308;47.438;-1.528;2023-03-01T14:56:13;9.80;58.80
64062;DHT22;50308;47.438;-1.528;2023-03-01T14:58:39;9.90;57.50
64062;DHT22;50308;47.438;-1.528;2023-03-01T15:01:04;9.70;56.50
64062;DHT22;50308;47.438;-1.528;2023-03-01T15:03:38;9.90;58.60
64062;DHT22;50308;47.438;-1.528;2023-03-01T15:06:06;9.90;58.40
64062;DHT22;50308;47.438;-1.528;2023-03-01T15:08:32;9.90;56.10
64062;DHT22;50308;47.438;-1.528;2023-03-01T15:11:04;10.00;59.00
64062;DHT22;50308;47.438;-1.528;2023-03-01T15:13:31;10.00;59.10
64062;DHT22;50308;47.438;-1.528;2023-03-01T15:16:04;10.00;58.20
64062;DHT22;50308;47.438;-1.528;2023-03-01T15:18:30;9.80;57.40
64062;DHT22;50308;47.438;-1.528;2023-03-01T15:21:04;9.90;56.80
64062;DHT22;50308;47.438;-1.528;2023-03-01T15:23:30;9.90;58.10
64062;DHT22;50308;47.438;-1.528;2023-03-01T15:25:56;9.90;57.10
64062;DHT22;50308;47.438;-1.528;2023-03-01T15:30:55;10.10;58.50
64062;DHT22;50308;47.438;-1.528;2023-03-01T15:35:48;10.00;56.50
64062;DHT22;50308;47.438;-1.528;2023-03-01T15:38:34;9.80;56.60
64062;DHT22;50308;47.438;-1.528;2023-03-01T15:41:01;9.80;57.50
64062;DHT22;50308;47.438;-1.528;2023-03-01T15:43:41;9.80;57.60
64062;DHT22;50308;47.438;-1.528;2023-03-01T15:48:44;9.90;58.00
64062;DHT22;50308;47.438;-1.528;2023-03-01T15:51:09;9.90;57.60
64062;DHT22;50308;47.438;-1.528;2023-03-01T15:53:37;9.90;57.90
64062;DHT22;50308;47.438;-1.528;2023-03-01T15:56:02;9.80;57.80
64062;DHT22;50308;47.438;-1.528;2023-03-01T15:58:28;9.70;57.90
64062;DHT22;50308;47.438;-1.528;2023-03-01T16:00:53;9.90;58.30
64062;DHT22;50308;47.438;-1.528;2023-03-01T16:03:22;10.00;58.20
64062;DHT22;50308;47.438;-1.528;2023-03-01T16:05:48;9.90;58.70
64062;DHT22;50308;47.438;-1.528;2023-03-01T16:08:15;9.90;57.40
64062;DHT22;50308;47.438;-1.528;2023-03-01T16:10:41;10.00;57.20
64062;DHT22;50308;47.438;-1.528;2023-03-01T16:13:09;10.10;57.70
64062;DHT22;50308;47.438;-1.528;2023-03-01T16:15:35;10.20;59.20
64062;DHT22;50308;47.438;-1.528;2023-03-01T16:18:01;10.10;59.50
64062;DHT22;50308;47.438;-1.528;2023-03-01T16:20:27;9.90;60.50
64062;DHT22;50308;47.438;-1.528;2023-03-01T16:22:53;9.90;60.10
64062;DHT22;50308;47.438;-1.528;2023-03-01T16:25:19;9.80;60.80
64062;DHT22;50308;47.438;-1.528;2023-03-01T16:27:46;9.80;61.50
64062;DHT22;50308;47.438;-1.528;2023-03-01T16:30:13;9.70;61.10
64062;DHT22;50308;47.438;-1.528;2023-03-01T16:32:39;9.70;61.70
64062;DHT22;50308;47.438;-1.528;2023-03-01T16:35:06;9.60;62.20
64062;DHT22;50308;47.438;-1.528;2023-03-01T16:37:32;9.60;61.90
64062;DHT22;50308;47.438;-1.528;2023-03-01T16:39:58;9.60;62.60
64062;DHT22;50308;47.438;-1.528;2023-03-01T16:42:24;9.60;62.60
64062;DHT22;50308;47.438;-1.528;2023-03-01T16:44:54;9.60;62.50
64062;DHT22;50308;47.438;-1.528;2023-03-01T16:47:19;9.60;62.90
64062;DHT22;50308;47.438;-1.528;2023-03-01T16:49:45;9.60;63.10
64062;DHT22;50308;47.438;-1.528;2023-03-01T16:52:10;9.60;62.80
64062;DHT22;50308;47.438;-1.528;2023-03-01T16:54:36;9.50;63.40
64062;DHT22;50308;47.438;-1.528;2023-03-01T16:57:02;9.50;63.30
64062;DHT22;50308;47.438;-1.528;2023-03-01T16:59:27;9.50;63.30
64062;DHT22;50308;47.438;-1.528;2023-03-01T17:01:53;9.50;63.30
64062;DHT22;50308;47.438;-1.528;2023-03-01T17:04:18;9.50;62.60
64062;DHT22;50308;47.438;-1.528;2023-03-01T17:06:44;9.50;62.50
64062;DHT22;50308;47.438;-1.528;2023-03-01T17:09:12;9.40;62.90
64062;DHT22;50308;47.438;-1.528;2023-03-01T17:11:37;9.50;63.30
64062;DHT22;50308;47.438;-1.528;2023-03-01T17:14:03;9.40;63.00
64062;DHT22;50308;47.438;-1.528;2023-03-01T17:16:28;9.40;62.80
64062;DHT22;50308;47.438;-1.528;2023-03-01T17:18:54;9.40;62.60
64062;DHT22;50308;47.438;-1.528;2023-03-01T17:21:19;9.40;62.90
64062;DHT22;50308;47.438;-1.528;2023-03-01T17:23:45;9.40;60.90
64062;DHT22;50308;47.438;-1.528;2023-03-01T17:26:11;9.40;62.20
64062;DHT22;50308;47.438;-1.528;2023-03-01T17:28:37;9.30;61.80
64062;DHT22;50308;47.438;-1.528;2023-03-01T17:31:04;9.30;62.10
64062;DHT22;50308;47.438;-1.528;2023-03-01T17:33:30;9.30;61.90
64062;DHT22;50308;47.438;-1.528;2023-03-01T17:35:56;9.30;62.20
64062;DHT22;50308;47.438;-1.528;2023-03-01T17:38:21;9.20;62.00
64062;DHT22;50308;47.438;-1.528;2023-03-01T17:40:47;9.20;61.20
64062;DHT22;50308;47.438;-1.528;2023-03-01T17:43:13;9.20;61.70